This demonstration page uses our WeatherBlox Daily Observations layout. Learn more.

Left ArrowRight Arrow

Hourly Observations for December 17, 2020

Temp ( °F °C ) Dew Point ( °F °C ) Humidity (%) Winds ( mph kmh ) Pressure ( in mb ) Visibility ( mi km ) Precip ( " mm )
12:54 am 00:54 Hazy 15 -9.4 10 -12.2 80 80 SSW 3 6 30.06 1018 6 9.65604 0 0
1:54 am 01:54 Hazy 17 -8.3 12 -11.1 80 80 SSE 3 6 30.04 1017 5 8.0467 0 0
2:54 am 02:54 Clear 15 -9.4 11 -11.7 84 84 S 5 7 30.04 1017 7 11.26538 0 0
3:54 am 03:54 Clear 15 -9.4 11 -11.7 84 84 S 3 6 30.06 1018 7 11.26538 0 0
4:54 am 04:54 Clear 13 -10.6 9 -12.8 84 84 S 6 9 30.05 1018 7 11.26538 0 0
5:54 am 05:54 Clear 14 -10 10 -12.2 84 84 Calm 30.07 1018 9 14.48406 0 0
6:54 am 06:54 Clear 14 -10 9 -12.8 80 80 Calm 30.1 1019 10 16.0934 0 0
7:54 am 07:54 Sunny 15 -9.4 9 -12.8 77 77 Calm 30.1 1019 9 14.48406 0 0
8:54 am 08:54 Sunny 17 -8.3 16 -8.9 95 95 Calm 30.11 1020 10 16.0934 0 0
9:54 am 09:54 Sunny 23 -5 19 -7.2 85 85 Calm 30.12 1020 10 16.0934 0 0
10:54 am 10:54 Sunny 29 -1.7 23 -5 78 78 Calm 30.14 1021 10 16.0934 0 0
11:54 am 11:54 Sunny 35 1.7 24 -4.4 64 64 WSW 6 9 30.12 1020 10 16.0934 0 0
12:54 pm 12:54 Sunny 34 1.1 26 -3.3 73 73 S 5 7 30.1 1019 10 16.0934 0 0
1:54 pm 13:54 Sunny 37 2.8 25 -3.9 62 62 SW 7 11 30.11 1020 10 16.0934 0 0
2:54 pm 14:54 Sunny 37 2.8 27 -2.8 67 67 S 6 9 30.1 1019 10 16.0934 0 0
3:54 pm 15:54 Sunny 34 1.1 27 -2.8 76 76 SSE 6 9 30.1 1019 10 16.0934 0 0
4:54 pm 16:54 Sunny 34 1.1 26 -3.3 73 73 SSE 6 9 30.09 1019 10 16.0934 0 0
5:54 pm 17:54 Clear 32 0 25 -3.9 75 75 SE 5 7 30.09 1019 10 16.0934 0 0
6:54 pm 18:54 Clear 30 -1.1 25 -3.9 82 82 Calm 30.09 1019 10 16.0934 0 0
7:54 pm 19:54 Clear 29 -1.7 24 -4.4 82 82 Calm 30.08 1019 10 16.0934 0 0
8:54 pm 20:54 Clear 29 -1.7 24 -4.4 82 82 S 3 6 30.08 1019 10 16.0934 0 0
9:54 pm 21:54 Clear 28 -2.2 23 -5 81 81 SSE 6 9 30.05 1018 10 16.0934 0 0
10:54 pm 22:54 Clear 29 -1.7 23 -5 78 78 S 3 6 30.05 1018 10 16.0934 0 0
11:54 pm 23:54 Clear 32 0 25 -3.9 75 75 S 10 17 30.02 1017 10 16.0934 0 0

Powered by AerisWeather